Hays Regional Airport
KHYS : now visible

Airfield :











YOU CAN JOIN US ON...

 
LOGIN :

Register | Disclaimer

   EN    FR    IT 

 









Legend :    VFR   Marginal VFR   IFR   Intensive IFR   Very Intensive IFR
Visi :
Ceiling :
>= 8 km
>= 3000ft
5 to 8 km
1000 to 3000 ft
1500m to 5 km
500 to 1000 ft
800 to 1500m
200 to 500 ft
< 800m
< 200 ft
Symbols :   Thunderstorms  Fog  Heavy snow  Heavy precipitations  Wind > 20 kt






- Airport Elevation : 1999 ft


KHYS - Hays Regional

CURRENT METAR :
  • 150456Z AUTO 03009KT 10SM OVC100 07/M01 A3025 RMK AO2 SLP251 T00721006

EXPIRED METARs :
  • 150356Z AUTO 04007KT 10SM OVC100 08/M01 A3025 RMK AO2 SLP251 T00831011

TAF KHYS
Valid from the 15 at 06:00 until the 16 at 06:00 UTC


150523Z 1506/1606 06006KT P6SM BKN100
FM152100 11010KT P6SM VCSH OVC040
FM152300 11010KT P6SM OVC035
FM160000 11009KT P6SM OVC030
FM160500 09009KT 6SM -RA BR OVC011
KZKC FIR / North America



MET'MAP, your aeronautical weather chart ! - Copyright ORBIFLY December 2007 - Disclaimer

ORBIFLY MET'MAP TEAM :

Programming & Development : Alexandra Zaïnal
Concept & original design : Baudouin d'Aumeries
Assistance for programming : Marc-Olivier Méhu
Technical & hardware support : Manuel Goepfert

Contact : metmap@orbifly.com




SOURCES & CREDITS :

   NOAA       Earth
Advisory